createdAt,value
2023-11-12T00:00:22.501Z,9.23
2023-11-12T00:02:50.367Z,8.53
2023-11-12T00:05:19.187Z,9.83
2023-11-12T00:07:49.485Z,9.47
2023-11-12T00:10:17.529Z,9.63
2023-11-12T00:12:45.748Z,9.30
2023-11-12T00:15:14.153Z,9.50
2023-11-12T00:17:43.180Z,8.93
2023-11-12T00:20:14.083Z,8.73
2023-11-12T00:22:45.126Z,9.70
2023-11-12T00:25:15.135Z,9.23
2023-11-12T00:27:43.112Z,10.27
2023-11-12T00:30:12.476Z,10.73
2023-11-12T00:32:40.570Z,11.10
2023-11-12T00:35:09.532Z,10.63
2023-11-12T00:37:37.397Z,11.63
2023-11-12T00:40:05.780Z,10.87
2023-11-12T00:42:35.183Z,11.53
2023-11-12T00:45:03.140Z,10.90
2023-11-12T00:47:30.882Z,11.60
2023-11-12T00:49:59.106Z,11.47
2023-11-12T00:52:27.046Z,11.73
2023-11-12T00:54:54.864Z,11.53
2023-11-12T00:57:23.513Z,11.27
2023-11-12T00:59:52.656Z,11.37
2023-11-12T01:02:20.599Z,11.27
2023-11-12T01:04:48.482Z,11.43
2023-11-12T01:07:17.037Z,10.57
2023-11-12T01:10:11.925Z,11.87
2023-11-12T01:12:39.858Z,10.73
2023-11-12T01:15:09.745Z,11.47
2023-11-12T01:17:38.216Z,10.23
2023-11-12T01:20:07.804Z,11.43
2023-11-12T01:22:35.683Z,10.20
2023-11-12T01:25:03.768Z,11.57
2023-11-12T01:27:31.677Z,10.97
2023-11-12T01:29:59.478Z,11.20
2023-11-12T01:32:28.890Z,11.23
2023-11-12T01:34:56.978Z,10.73
2023-11-12T01:37:25.056Z,9.57
2023-11-12T01:39:52.915Z,9.83
2023-11-12T01:42:20.855Z,10.23
2023-11-12T01:44:48.736Z,9.30
2023-11-12T01:47:17.479Z,9.53
2023-11-12T01:49:46.716Z,8.40
2023-11-12T01:52:14.488Z,9.30
2023-11-12T01:54:45.311Z,9.27
2023-11-12T01:57:13.398Z,9.70
2023-11-12T01:59:41.287Z,8.33
2023-11-12T02:02:09.122Z,9.20
2023-11-12T02:04:36.896Z,8.03
2023-11-12T08:14:22.118Z,3.20
2023-11-12T08:16:54.576Z,3.13
2023-11-12T08:19:23.256Z,3.10
2023-11-12T08:21:54.331Z,3.43
2023-11-12T08:24:26.098Z,2.90
2023-11-12T08:27:03.548Z,2.85
2023-11-12T08:29:33.428Z,3.15
2023-11-12T08:32:02.863Z,3.00
2023-11-12T08:34:30.785Z,3.30
2023-11-12T08:36:58.682Z,3.20
2023-11-12T08:39:36.680Z,2.83
2023-11-12T08:42:13.464Z,3.13
2023-11-12T08:44:44.732Z,3.35
2023-11-12T08:47:21.665Z,3.15
2023-11-12T08:49:50.729Z,3.53
2023-11-12T10:28:59.379Z,2.92
2023-11-12T10:31:37.780Z,2.70
2023-11-12T10:34:05.637Z,2.30
2023-11-12T10:36:33.384Z,2.75
2023-11-12T10:39:05.144Z,2.40
2023-11-12T10:41:35.890Z,2.92
2023-11-12T10:44:05.499Z,2.25
2023-11-12T10:46:34.386Z,1.90
2023-11-12T10:49:02.863Z,2.08
2023-11-12T10:51:30.864Z,2.40
2023-11-12T10:54:00.002Z,2.20
2023-11-12T10:56:28.490Z,1.90
2023-11-12T10:58:59.645Z,1.90
2023-11-12T11:04:44.333Z,2.20
2023-11-12T11:07:23.339Z,2.53
2023-11-12T11:09:51.774Z,2.30
2023-11-12T11:12:20.116Z,2.30
2023-11-12T11:14:49.222Z,2.10
2023-11-12T11:17:39.958Z,2.40
2023-11-12T11:20:13.402Z,2.70
2023-11-12T11:22:42.914Z,3.85
2023-11-12T11:25:24.243Z,2.95
2023-11-12T11:27:53.313Z,2.58
2023-11-12T11:30:24.955Z,2.90
2023-11-12T11:33:01.241Z,2.53
2023-11-12T11:35:30.286Z,2.53
2023-11-12T11:38:15.247Z,5.45
2023-11-12T11:40:46.424Z,2.60
2023-11-12T11:43:35.836Z,2.63
2023-11-12T11:46:11.436Z,2.80
2023-11-12T11:49:20.297Z,2.80
2023-11-12T11:51:53.019Z,3.15
2023-11-12T14:14:39.033Z,2.40
2023-11-12T14:17:09.053Z,2.60
2023-11-12T14:19:37.348Z,1.97
2023-11-12T14:22:07.844Z,2.80
2023-11-12T14:24:38.282Z,1.90
2023-11-12T14:27:08.823Z,2.87
2023-11-12T14:29:38.453Z,2.30
2023-11-12T14:32:07.702Z,2.43
2023-11-12T14:34:36.208Z,3.40
2023-11-12T14:37:04.364Z,2.97
2023-11-12T14:39:32.632Z,2.37
2023-11-12T14:42:01.273Z,2.90
2023-11-12T14:44:29.142Z,2.40
2023-11-12T14:46:58.563Z,2.43
2023-11-12T14:49:27.295Z,2.63
2023-11-12T14:51:56.210Z,2.47
2023-11-12T15:26:49.657Z,2.70
2023-11-12T15:29:20.191Z,2.53
2023-11-12T15:31:48.250Z,2.70
2023-11-12T15:34:16.752Z,2.30
2023-11-12T15:36:44.668Z,2.97
2023-11-12T15:39:15.076Z,2.73
2023-11-12T15:41:42.979Z,2.73
2023-11-12T15:44:12.445Z,2.83
2023-11-12T15:46:44.623Z,2.97
2023-11-12T15:49:12.773Z,5.00
2023-11-12T15:51:40.719Z,3.23
2023-11-12T15:54:08.840Z,10.47
2023-11-12T15:56:37.243Z,3.10
2023-11-12T15:59:05.189Z,4.10
2023-11-12T16:01:35.310Z,5.87
2023-11-12T16:04:06.308Z,4.67
2023-11-12T16:06:34.815Z,4.07
2023-11-12T16:09:09.736Z,4.20
2023-11-12T16:11:37.664Z,4.00
2023-11-12T16:14:06.168Z,4.20
2023-11-12T16:16:35.482Z,3.27
2023-11-12T16:19:03.402Z,3.53
2023-11-12T16:21:31.318Z,4.97
2023-11-12T16:24:02.431Z,3.87
2023-11-12T16:26:32.289Z,4.27
2023-11-12T16:29:00.213Z,3.33
2023-11-12T16:31:28.903Z,3.63
2023-11-12T16:34:00.478Z,3.70
2023-11-12T16:36:29.155Z,3.90
2023-11-12T16:38:57.304Z,4.03
2023-11-12T16:41:25.110Z,3.93
2023-11-12T16:43:53.179Z,4.20
2023-11-12T16:46:21.473Z,3.97
2023-11-12T16:48:49.871Z,3.70
2023-11-12T16:51:19.125Z,3.70
2023-11-12T16:53:46.937Z,3.60
2023-11-12T16:56:14.922Z,4.20
2023-11-12T16:58:44.040Z,3.90
2023-11-12T17:01:13.134Z,3.40
2023-11-12T17:03:41.214Z,3.90
2023-11-12T17:06:10.628Z,3.77
2023-11-12T17:08:40.068Z,3.13
2023-11-12T17:11:09.351Z,3.90
2023-11-12T17:13:37.168Z,4.07
2023-11-12T17:16:05.349Z,4.20
2023-11-12T17:18:34.446Z,4.37
2023-11-12T17:21:02.711Z,4.37
2023-11-12T17:23:30.702Z,4.83
2023-11-12T17:26:01.136Z,3.90
2023-11-12T17:28:30.366Z,4.37
2023-11-12T17:30:58.384Z,3.73
2023-11-12T17:33:27.365Z,3.93
2023-11-12T17:35:55.409Z,4.30
2023-11-12T17:38:28.961Z,3.77
2023-11-12T17:40:57.320Z,4.10
2023-11-12T17:43:26.870Z,3.70
2023-11-12T17:45:54.850Z,4.30
2023-11-12T17:48:22.963Z,4.30
2023-11-12T17:50:50.948Z,3.83
2023-11-12T17:53:18.920Z,37.60
2023-11-12T17:55:47.093Z,9.13
2023-11-12T17:58:15.328Z,6.00
2023-11-12T18:00:44.661Z,4.63
2023-11-12T18:03:13.465Z,4.73
2023-11-12T18:05:41.464Z,4.60
2023-11-12T18:08:09.639Z,5.10
2023-11-12T18:10:38.032Z,5.03
2023-11-12T18:13:07.074Z,6.13
2023-11-12T18:15:37.785Z,5.00
2023-11-12T18:18:30.090Z,5.63
2023-11-12T18:21:08.592Z,4.47
2023-11-12T18:23:38.308Z,4.57
2023-11-12T18:26:06.457Z,5.17
2023-11-12T18:28:38.136Z,5.33
2023-11-12T18:31:07.308Z,5.20
2023-11-12T18:33:37.213Z,13.80
2023-11-12T18:36:05.272Z,5.90
2023-11-12T18:38:34.932Z,4.87
2023-11-12T18:41:03.060Z,4.93
2023-11-12T18:43:30.977Z,5.90
2023-11-12T18:46:02.101Z,4.97
2023-11-12T18:48:30.303Z,4.67
2023-11-12T18:51:00.023Z,4.87
2023-11-12T18:53:27.858Z,4.87
2023-11-12T18:55:56.075Z,5.30
2023-11-12T18:58:24.236Z,5.00
2023-11-12T19:00:51.940Z,5.43
2023-11-12T19:03:20.998Z,5.03
2023-11-12T19:05:49.346Z,5.10
2023-11-12T19:08:19.637Z,6.40
2023-11-12T19:10:47.729Z,5.07
2023-11-12T19:13:15.473Z,6.17
2023-11-12T19:15:43.443Z,5.20
2023-11-12T19:18:13.570Z,4.87
2023-11-12T19:20:41.479Z,4.93
2023-11-12T19:23:12.102Z,8.40
2023-11-12T19:25:44.346Z,5.97
2023-11-12T19:28:12.254Z,10.27
2023-11-12T19:30:40.197Z,5.80
2023-11-12T19:33:08.419Z,5.40
2023-11-12T19:35:37.025Z,7.77
2023-11-12T19:38:04.774Z,5.90
2023-11-12T19:40:35.793Z,5.20
2023-11-12T19:43:06.525Z,7.47
2023-11-12T19:45:34.608Z,7.10
2023-11-12T19:48:02.805Z,7.07
2023-11-12T19:50:31.788Z,4.93
2023-11-12T19:53:00.542Z,5.17
2023-11-12T19:55:28.511Z,5.10
2023-11-12T19:57:56.797Z,5.67
2023-11-12T20:00:26.100Z,5.27
2023-11-12T20:02:54.102Z,5.20
2023-11-12T20:05:21.905Z,7.20
2023-11-12T20:07:50.990Z,5.77
2023-11-12T20:10:19.303Z,5.37
2023-11-12T20:12:47.089Z,6.07
2023-11-12T20:15:15.244Z,6.10
2023-11-12T20:17:47.925Z,6.20
2023-11-12T20:20:16.198Z,6.03
2023-11-12T20:22:46.595Z,5.87
2023-11-12T20:25:14.728Z,5.47
2023-11-12T20:27:43.199Z,5.87
2023-11-12T20:30:12.054Z,4.70
2023-11-12T20:32:40.450Z,5.20
2023-11-12T20:35:10.894Z,5.13
2023-11-12T20:37:39.067Z,5.70
2023-11-12T20:40:10.394Z,5.50
2023-11-12T20:42:38.855Z,5.30
2023-11-12T20:45:07.950Z,4.90
2023-11-12T20:47:36.163Z,5.07
2023-11-12T20:50:05.610Z,5.80
2023-11-12T20:52:35.095Z,5.23
2023-11-12T20:55:03.036Z,5.27
2023-11-12T20:57:30.988Z,4.93
2023-11-12T21:00:00.015Z,4.80
2023-11-12T21:02:29.362Z,5.50
2023-11-12T21:04:57.196Z,5.30
2023-11-12T21:07:25.088Z,5.50
2023-11-12T21:10:05.441Z,4.73
2023-11-12T21:12:33.386Z,5.30
2023-11-12T21:15:07.336Z,6.07
2023-11-12T22:38:37.699Z,5.27
2023-11-12T22:41:06.002Z,4.40
2023-11-12T22:43:33.731Z,4.53
2023-11-12T22:46:03.655Z,4.40
2023-11-12T22:48:31.499Z,4.73
2023-11-12T22:50:59.909Z,4.43
2023-11-12T22:53:28.760Z,4.57
2023-11-12T22:55:57.816Z,4.33
2023-11-12T22:58:25.660Z,4.33
2023-11-12T23:00:56.241Z,4.37
2023-11-12T23:03:24.044Z,4.67
2023-11-12T23:05:52.404Z,4.43
2023-11-12T23:08:20.847Z,4.40
2023-11-12T23:10:50.033Z,3.73
2023-11-12T23:13:21.804Z,4.37
2023-11-12T23:15:49.698Z,4.60
2023-11-12T23:18:19.229Z,4.73
2023-11-12T23:20:52.619Z,4.30
2023-11-12T23:23:27.103Z,4.60
2023-11-12T23:25:55.145Z,3.90
2023-11-12T23:28:26.333Z,4.30
2023-11-12T23:30:54.712Z,4.37
2023-11-12T23:33:23.570Z,4.47
2023-11-12T23:35:51.315Z,4.27
2023-11-12T23:38:19.089Z,4.57
2023-11-12T23:40:46.957Z,3.47
2023-11-12T23:43:15.005Z,3.60
2023-11-12T23:45:44.986Z,4.23
2023-11-12T23:48:12.948Z,3.23
2023-11-12T23:50:40.717Z,4.73
2023-11-12T23:53:08.476Z,4.30
2023-11-12T23:55:36.574Z,3.30
2023-11-12T23:58:05.085Z,4.30
